sensor_id;sensor_type;location;lat;lon;timestamp;P1;durP1;ratioP1;P2;durP2;ratioP2
64851;SDS011;56050;55.558;-4.644;2022-11-02T00:02:16;3.15;;;0.70;;
64851;SDS011;56050;55.558;-4.644;2022-11-02T00:04:41;4.07;;;0.70;;
64851;SDS011;56050;55.558;-4.644;2022-11-02T00:07:07;2.55;;;0.50;;
64851;SDS011;56050;55.558;-4.644;2022-11-02T00:09:32;4.15;;;0.80;;
64851;SDS011;56050;55.558;-4.644;2022-11-02T00:11:57;2.28;;;0.68;;
64851;SDS011;56050;55.558;-4.644;2022-11-02T00:14:23;5.07;;;0.70;;
64851;SDS011;56050;55.558;-4.644;2022-11-02T00:16:49;2.97;;;0.80;;
64851;SDS011;56050;55.558;-4.644;2022-11-02T00:19:15;6.90;;;1.13;;
64851;SDS011;56050;55.558;-4.644;2022-11-02T00:21:40;4.97;;;0.63;;
64851;SDS011;56050;55.558;-4.644;2022-11-02T00:24:06;5.95;;;0.75;;
64851;SDS011;56050;55.558;-4.644;2022-11-02T00:26:34;5.65;;;1.05;;
64851;SDS011;56050;55.558;-4.644;2022-11-02T00:29:00;6.90;;;0.73;;
64851;SDS011;56050;55.558;-4.644;2022-11-02T00:31:27;7.68;;;1.00;;
64851;SDS011;56050;55.558;-4.644;2022-11-02T00:33:52;6.57;;;0.68;;
64851;SDS011;56050;55.558;-4.644;2022-11-02T00:36:18;2.55;;;0.93;;
64851;SDS011;56050;55.558;-4.644;2022-11-02T00:38:43;8.35;;;1.13;;
64851;SDS011;56050;55.558;-4.644;2022-11-02T00:41:09;4.28;;;0.85;;
64851;SDS011;56050;55.558;-4.644;2022-11-02T00:43:36;3.58;;;0.85;;
64851;SDS011;56050;55.558;-4.644;2022-11-02T00:46:02;4.10;;;0.93;;
64851;SDS011;56050;55.558;-4.644;2022-11-02T00:48:27;7.75;;;0.68;;
64851;SDS011;56050;55.558;-4.644;2022-11-02T00:50:53;3.53;;;0.93;;
64851;SDS011;56050;55.558;-4.644;2022-11-02T00:53:18;3.42;;;0.60;;
64851;SDS011;56050;55.558;-4.644;2022-11-02T00:55:44;4.07;;;0.70;;
64851;SDS011;56050;55.558;-4.644;2022-11-02T00:58:10;3.35;;;0.40;;
64851;SDS011;56050;55.558;-4.644;2022-11-02T01:00:35;4.93;;;0.50;;
64851;SDS011;56050;55.558;-4.644;2022-11-02T01:03:01;3.92;;;0.60;;
64851;SDS011;56050;55.558;-4.644;2022-11-02T01:05:26;6.43;;;0.40;;
64851;SDS011;56050;55.558;-4.644;2022-11-02T01:07:53;6.93;;;1.23;;
64851;SDS011;56050;55.558;-4.644;2022-11-02T01:10:18;3.95;;;1.15;;
64851;SDS011;56050;55.558;-4.644;2022-11-02T01:12:44;2.85;;;0.50;;
64851;SDS011;56050;55.558;-4.644;2022-11-02T01:15:09;5.90;;;0.73;;
64851;SDS011;56050;55.558;-4.644;2022-11-02T01:17:35;5.60;;;1.00;;
64851;SDS011;56050;55.558;-4.644;2022-11-02T01:20:01;5.72;;;0.90;;
64851;SDS011;56050;55.558;-4.644;2022-11-02T01:22:27;2.20;;;0.40;;
64851;SDS011;56050;55.558;-4.644;2022-11-02T01:24:52;3.50;;;0.85;;
64851;SDS011;56050;55.558;-4.644;2022-11-02T01:27:19;6.60;;;2.30;;
64851;SDS011;56050;55.558;-4.644;2022-11-02T01:29:44;4.20;;;0.43;;
64851;SDS011;56050;55.558;-4.644;2022-11-02T01:32:10;5.18;;;0.73;;
64851;SDS011;56050;55.558;-4.644;2022-11-02T01:34:35;5.28;;;0.80;;
64851;SDS011;56050;55.558;-4.644;2022-11-02T01:37:00;3.40;;;0.50;;
64851;SDS011;56050;55.558;-4.644;2022-11-02T01:42:32;7.18;;;0.88;;
64851;SDS011;56050;55.558;-4.644;2022-11-02T01:44:57;2.63;;;0.45;;
64851;SDS011;56050;55.558;-4.644;2022-11-02T01:47:34;2.13;;;0.50;;
64851;SDS011;56050;55.558;-4.644;2022-11-02T01:50:10;4.05;;;0.38;;
64851;SDS011;56050;55.558;-4.644;2022-11-02T01:52:40;5.30;;;0.40;;
64851;SDS011;56050;55.558;-4.644;2022-11-02T01:55:08;2.55;;;0.30;;
64851;SDS011;56050;55.558;-4.644;2022-11-02T01:57:38;6.80;;;0.88;;
64851;SDS011;56050;55.558;-4.644;2022-11-02T02:00:06;4.95;;;0.80;;
64851;SDS011;56050;55.558;-4.644;2022-11-02T02:02:35;4.32;;;0.70;;
64851;SDS011;56050;55.558;-4.644;2022-11-02T02:05:08;4.53;;;0.85;;
64851;SDS011;56050;55.558;-4.644;2022-11-02T02:10:02;6.43;;;0.83;;
64851;SDS011;56050;55.558;-4.644;2022-11-02T02:12:28;2.88;;;0.20;;
64851;SDS011;56050;55.558;-4.644;2022-11-02T02:14:55;2.72;;;0.40;;
64851;SDS011;56050;55.558;-4.644;2022-11-02T02:17:30;3.50;;;0.60;;
64851;SDS011;56050;55.558;-4.644;2022-11-02T02:38:48;3.03;;;0.73;;
64851;SDS011;56050;55.558;-4.644;2022-11-02T02:41:36;2.80;;;0.35;;
64851;SDS011;56050;55.558;-4.644;2022-11-02T02:44:07;1.73;;;0.60;;
64851;SDS011;56050;55.558;-4.644;2022-11-02T02:46:44;3.60;;;0.68;;
64851;SDS011;56050;55.558;-4.644;2022-11-02T02:49:17;4.53;;;0.60;;
64851;SDS011;56050;55.558;-4.644;2022-11-02T02:51:46;3.92;;;1.10;;
64851;SDS011;56050;55.558;-4.644;2022-11-02T02:54:17;5.22;;;0.50;;
64851;SDS011;56050;55.558;-4.644;2022-11-02T02:56:50;3.92;;;0.60;;
64851;SDS011;56050;55.558;-4.644;2022-11-02T02:59:23;6.20;;;0.80;;
64851;SDS011;56050;55.558;-4.644;2022-11-02T03:01:53;3.13;;;0.50;;
64851;SDS011;56050;55.558;-4.644;2022-11-02T03:04:20;1.98;;;0.50;;
64851;SDS011;56050;55.558;-4.644;2022-11-02T03:06:50;3.35;;;0.80;;
64851;SDS011;56050;55.558;-4.644;2022-11-02T03:09:22;7.07;;;0.75;;
64851;SDS011;56050;55.558;-4.644;2022-11-02T03:20:25;4.20;;;0.40;;
64851;SDS011;56050;55.558;-4.644;2022-11-02T03:28:41;5.35;;;0.50;;
64851;SDS011;56050;55.558;-4.644;2022-11-02T03:31:02;3.47;;;1.05;;
64851;SDS011;56050;55.558;-4.644;2022-11-02T03:33:46;3.15;;;0.57;;
64851;SDS011;56050;55.558;-4.644;2022-11-02T03:36:20;2.88;;;0.82;;
64851;SDS011;56050;55.558;-4.644;2022-11-02T03:38:55;1.92;;;0.28;;
64851;SDS011;56050;55.558;-4.644;2022-11-02T03:41:26;2.17;;;0.50;;
64851;SDS011;56050;55.558;-4.644;2022-11-02T03:43:54;4.68;;;2.63;;
64851;SDS011;56050;55.558;-4.644;2022-11-02T03:46:26;4.53;;;0.70;;
64851;SDS011;56050;55.558;-4.644;2022-11-02T03:48:56;4.07;;;0.50;;
64851;SDS011;56050;55.558;-4.644;2022-11-02T03:51:22;3.60;;;0.75;;
64851;SDS011;56050;55.558;-4.644;2022-11-02T03:56:37;1.75;;;0.40;;
64851;SDS011;56050;55.558;-4.644;2022-11-02T03:59:06;5.70;;;0.50;;
64851;SDS011;56050;55.558;-4.644;2022-11-02T04:01:35;5.25;;;0.52;;
64851;SDS011;56050;55.558;-4.644;2022-11-02T04:04:03;4.10;;;0.85;;
64851;SDS011;56050;55.558;-4.644;2022-11-02T04:06:29;2.70;;;0.40;;
64851;SDS011;56050;55.558;-4.644;2022-11-02T04:08:54;2.28;;;0.63;;
64851;SDS011;56050;55.558;-4.644;2022-11-02T04:11:20;2.45;;;0.60;;
64851;SDS011;56050;55.558;-4.644;2022-11-02T04:14:05;4.05;;;0.43;;
64851;SDS011;56050;55.558;-4.644;2022-11-02T04:16:49;3.15;;;0.85;;
64851;SDS011;56050;55.558;-4.644;2022-11-02T04:19:34;4.00;;;0.40;;
64851;SDS011;56050;55.558;-4.644;2022-11-02T04:22:00;3.85;;;0.70;;
64851;SDS011;56050;55.558;-4.644;2022-11-02T04:24:44;4.30;;;1.02;;
64851;SDS011;56050;55.558;-4.644;2022-11-02T04:27:28;6.50;;;0.50;;
64851;SDS011;56050;55.558;-4.644;2022-11-02T04:29:53;3.60;;;0.52;;
64851;SDS011;56050;55.558;-4.644;2022-11-02T04:32:19;3.53;;;2.95;;
64851;SDS011;56050;55.558;-4.644;2022-11-02T04:35:03;2.88;;;0.75;;
64851;SDS011;56050;55.558;-4.644;2022-11-02T04:37:29;2.55;;;0.40;;
64851;SDS011;56050;55.558;-4.644;2022-11-02T04:40:13;2.05;;;0.30;;
64851;SDS011;56050;55.558;-4.644;2022-11-02T04:42:39;3.55;;;0.40;;
64851;SDS011;56050;55.558;-4.644;2022-11-02T04:45:04;4.88;;;0.60;;
64851;SDS011;56050;55.558;-4.644;2022-11-02T04:47:30;3.63;;;0.50;;
64851;SDS011;56050;55.558;-4.644;2022-11-02T04:49:55;2.92;;;1.10;;
64851;SDS011;56050;55.558;-4.644;2022-11-02T04:52:21;1.70;;;0.68;;
64851;SDS011;56050;55.558;-4.644;2022-11-02T04:54:46;4.35;;;0.73;;
64851;SDS011;56050;55.558;-4.644;2022-11-02T04:57:12;4.38;;;1.23;;
64851;SDS011;56050;55.558;-4.644;2022-11-02T04:59:37;4.55;;;0.60;;
64851;SDS011;56050;55.558;-4.644;2022-11-02T05:02:02;2.00;;;0.50;;
64851;SDS011;56050;55.558;-4.644;2022-11-02T05:04:28;7.25;;;2.35;;
64851;SDS011;56050;55.558;-4.644;2022-11-02T05:06:53;3.65;;;0.70;;
64851;SDS011;56050;55.558;-4.644;2022-11-02T05:09:19;5.35;;;0.85;;
64851;SDS011;56050;55.558;-4.644;2022-11-02T05:11:44;3.47;;;0.70;;
64851;SDS011;56050;55.558;-4.644;2022-11-02T05:14:11;4.18;;;1.15;;
64851;SDS011;56050;55.558;-4.644;2022-11-02T05:16:36;4.65;;;0.60;;
64851;SDS011;56050;55.558;-4.644;2022-11-02T05:19:02;2.58;;;0.55;;
64851;SDS011;56050;55.558;-4.644;2022-11-02T05:21:27;5.90;;;1.23;;
64851;SDS011;56050;55.558;-4.644;2022-11-02T05:23:54;4.93;;;0.90;;
64851;SDS011;56050;55.558;-4.644;2022-11-02T05:26:19;4.30;;;1.05;;
64851;SDS011;56050;55.558;-4.644;2022-11-02T05:28:45;3.95;;;0.57;;
64851;SDS011;56050;55.558;-4.644;2022-11-02T05:31:10;2.90;;;0.50;;
64851;SDS011;56050;55.558;-4.644;2022-11-02T05:33:35;3.70;;;1.35;;
64851;SDS011;56050;55.558;-4.644;2022-11-02T05:36:01;3.33;;;0.60;;
64851;SDS011;56050;55.558;-4.644;2022-11-02T05:38:27;5.68;;;0.68;;
64851;SDS011;56050;55.558;-4.644;2022-11-02T05:40:53;2.75;;;1.00;;
64851;SDS011;56050;55.558;-4.644;2022-11-02T05:43:20;7.30;;;0.70;;
64851;SDS011;56050;55.558;-4.644;2022-11-02T05:46:00;4.82;;;0.52;;
64851;SDS011;56050;55.558;-4.644;2022-11-02T05:48:27;5.85;;;0.70;;
64851;SDS011;56050;55.558;-4.644;2022-11-02T05:50:55;4.47;;;0.90;;
64851;SDS011;56050;55.558;-4.644;2022-11-02T05:53:22;4.93;;;0.50;;
64851;SDS011;56050;55.558;-4.644;2022-11-02T05:55:47;3.90;;;0.70;;
64851;SDS011;56050;55.558;-4.644;2022-11-02T05:58:13;3.50;;;0.95;;
64851;SDS011;56050;55.558;-4.644;2022-11-02T06:00:38;2.50;;;0.45;;
64851;SDS011;56050;55.558;-4.644;2022-11-02T06:03:04;4.75;;;0.60;;
64851;SDS011;56050;55.558;-4.644;2022-11-02T06:05:30;5.55;;;0.63;;
64851;SDS011;56050;55.558;-4.644;2022-11-02T06:07:58;3.65;;;0.65;;
64851;SDS011;56050;55.558;-4.644;2022-11-02T06:10:25;5.80;;;0.55;;
64851;SDS011;56050;55.558;-4.644;2022-11-02T06:12:58;2.22;;;0.63;;
64851;SDS011;56050;55.558;-4.644;2022-11-02T06:15:25;3.15;;;0.43;;
64851;SDS011;56050;55.558;-4.644;2022-11-02T06:17:51;2.63;;;0.65;;
64851;SDS011;56050;55.558;-4.644;2022-11-02T06:20:17;5.18;;;0.85;;
64851;SDS011;56050;55.558;-4.644;2022-11-02T06:22:43;3.45;;;0.82;;
64851;SDS011;56050;55.558;-4.644;2022-11-02T06:25:08;4.63;;;0.40;;
64851;SDS011;56050;55.558;-4.644;2022-11-02T06:27:34;3.58;;;0.38;;
64851;SDS011;56050;55.558;-4.644;2022-11-02T06:30:00;5.35;;;0.60;;
64851;SDS011;56050;55.558;-4.644;2022-11-02T06:32:26;5.30;;;0.50;;
64851;SDS011;56050;55.558;-4.644;2022-11-02T06:34:51;4.78;;;0.80;;
64851;SDS011;56050;55.558;-4.644;2022-11-02T06:37:17;5.72;;;0.75;;
64851;SDS011;56050;55.558;-4.644;2022-11-02T06:39:42;6.15;;;0.98;;
64851;SDS011;56050;55.558;-4.644;2022-11-02T06:42:09;3.60;;;2.58;;
64851;SDS011;56050;55.558;-4.644;2022-11-02T06:44:35;4.93;;;0.90;;
64851;SDS011;56050;55.558;-4.644;2022-11-02T06:47:01;4.78;;;0.50;;
64851;SDS011;56050;55.558;-4.644;2022-11-02T06:49:26;3.67;;;0.82;;
64851;SDS011;56050;55.558;-4.644;2022-11-02T06:51:52;3.80;;;2.42;;
64851;SDS011;56050;55.558;-4.644;2022-11-02T06:54:17;4.90;;;0.90;;
64851;SDS011;56050;55.558;-4.644;2022-11-02T06:56:43;3.90;;;0.95;;
64851;SDS011;56050;55.558;-4.644;2022-11-02T06:59:08;2.17;;;0.63;;
64851;SDS011;56050;55.558;-4.644;2022-11-02T07:01:34;6.43;;;0.70;;
64851;SDS011;56050;55.558;-4.644;2022-11-02T07:04:00;3.15;;;0.60;;
64851;SDS011;56050;55.558;-4.644;2022-11-02T07:06:26;5.72;;;0.60;;
64851;SDS011;56050;55.558;-4.644;2022-11-02T07:08:51;6.82;;;0.55;;
64851;SDS011;56050;55.558;-4.644;2022-11-02T07:11:17;4.95;;;0.82;;
64851;SDS011;56050;55.558;-4.644;2022-11-02T07:13:42;1.83;;;1.00;;
64851;SDS011;56050;55.558;-4.644;2022-11-02T07:16:08;1.25;;;0.45;;
64851;SDS011;56050;55.558;-4.644;2022-11-02T07:18:34;1.75;;;0.60;;
64851;SDS011;56050;55.558;-4.644;2022-11-02T07:20:59;3.67;;;0.70;;
64851;SDS011;56050;55.558;-4.644;2022-11-02T07:23:25;1.92;;;1.10;;
64851;SDS011;56050;55.558;-4.644;2022-11-02T07:25:52;3.70;;;0.40;;
64851;SDS011;56050;55.558;-4.644;2022-11-02T07:28:18;3.10;;;0.68;;
64851;SDS011;56050;55.558;-4.644;2022-11-02T07:30:44;7.28;;;0.68;;
64851;SDS011;56050;55.558;-4.644;2022-11-02T07:33:09;7.13;;;0.80;;
64851;SDS011;56050;55.558;-4.644;2022-11-02T07:35:35;4.50;;;0.93;;
64851;SDS011;56050;55.558;-4.644;2022-11-02T07:38:01;9.98;;;1.15;;
64851;SDS011;56050;55.558;-4.644;2022-11-02T07:40:29;3.80;;;0.52;;
64851;SDS011;56050;55.558;-4.644;2022-11-02T07:42:56;11.35;;;1.63;;
64851;SDS011;56050;55.558;-4.644;2022-11-02T07:45:22;4.45;;;1.05;;
64851;SDS011;56050;55.558;-4.644;2022-11-02T07:47:48;3.05;;;0.60;;
64851;SDS011;56050;55.558;-4.644;2022-11-02T07:50:15;8.70;;;1.52;;
64851;SDS011;56050;55.558;-4.644;2022-11-02T07:52:43;3.05;;;0.90;;
64851;SDS011;56050;55.558;-4.644;2022-11-02T07:55:12;3.13;;;0.55;;
64851;SDS011;56050;55.558;-4.644;2022-11-02T07:57:40;6.07;;;0.60;;
64851;SDS011;56050;55.558;-4.644;2022-11-02T08:00:07;4.45;;;0.77;;
64851;SDS011;56050;55.558;-4.644;2022-11-02T08:02:34;3.67;;;0.55;;
64851;SDS011;56050;55.558;-4.644;2022-11-02T08:05:00;7.40;;;0.80;;
64851;SDS011;56050;55.558;-4.644;2022-11-02T08:07:25;7.63;;;0.98;;
64851;SDS011;56050;55.558;-4.644;2022-11-02T08:09:51;3.50;;;1.05;;
64851;SDS011;56050;55.558;-4.644;2022-11-02T08:12:16;4.75;;;0.75;;
64851;SDS011;56050;55.558;-4.644;2022-11-02T08:14:41;6.40;;;1.13;;
64851;SDS011;56050;55.558;-4.644;2022-11-02T08:17:07;5.28;;;1.02;;
64851;SDS011;56050;55.558;-4.644;2022-11-02T08:19:32;4.72;;;0.77;;
64851;SDS011;56050;55.558;-4.644;2022-11-02T08:21:57;5.35;;;0.63;;
64851;SDS011;56050;55.558;-4.644;2022-11-02T08:24:23;4.30;;;0.90;;
64851;SDS011;56050;55.558;-4.644;2022-11-02T08:26:48;6.57;;;1.27;;
64851;SDS011;56050;55.558;-4.644;2022-11-02T08:29:14;3.90;;;0.95;;
64851;SDS011;56050;55.558;-4.644;2022-11-02T08:31:39;6.38;;;0.40;;
64851;SDS011;56050;55.558;-4.644;2022-11-02T08:34:05;7.10;;;0.60;;
64851;SDS011;56050;55.558;-4.644;2022-11-02T08:36:30;1.58;;;0.30;;
64851;SDS011;56050;55.558;-4.644;2022-11-02T08:38:56;4.18;;;0.60;;
64851;SDS011;56050;55.558;-4.644;2022-11-02T08:41:21;5.45;;;0.60;;
64851;SDS011;56050;55.558;-4.644;2022-11-02T08:43:46;3.60;;;0.40;;
64851;SDS011;56050;55.558;-4.644;2022-11-02T08:46:12;2.42;;;0.50;;
64851;SDS011;56050;55.558;-4.644;2022-11-02T08:48:37;1.83;;;0.60;;
64851;SDS011;56050;55.558;-4.644;2022-11-02T08:51:03;3.90;;;0.68;;
64851;SDS011;56050;55.558;-4.644;2022-11-02T08:53:29;6.82;;;0.50;;
64851;SDS011;56050;55.558;-4.644;2022-11-02T08:55:58;4.30;;;0.63;;
64851;SDS011;56050;55.558;-4.644;2022-11-02T08:58:23;3.10;;;0.57;;
64851;SDS011;56050;55.558;-4.644;2022-11-02T09:00:51;2.53;;;0.60;;
64851;SDS011;56050;55.558;-4.644;2022-11-02T09:03:16;2.60;;;0.50;;
64851;SDS011;56050;55.558;-4.644;2022-11-02T09:05:43;1.85;;;0.75;;
64851;SDS011;56050;55.558;-4.644;2022-11-02T09:08:10;1.67;;;0.40;;
64851;SDS011;56050;55.558;-4.644;2022-11-02T09:10:43;1.83;;;0.30;;
64851;SDS011;56050;55.558;-4.644;2022-11-02T09:13:11;2.47;;;0.50;;
64851;SDS011;56050;55.558;-4.644;2022-11-02T09:15:38;3.75;;;0.90;;
64851;SDS011;56050;55.558;-4.644;2022-11-02T09:18:04;2.03;;;0.55;;
64851;SDS011;56050;55.558;-4.644;2022-11-02T09:20:31;3.83;;;0.32;;
64851;SDS011;56050;55.558;-4.644;2022-11-02T09:22:56;2.30;;;0.40;;
64851;SDS011;56050;55.558;-4.644;2022-11-02T09:25:22;3.03;;;1.13;;
64851;SDS011;56050;55.558;-4.644;2022-11-02T09:27:51;1.67;;;0.60;;
64851;SDS011;56050;55.558;-4.644;2022-11-02T09:30:20;1.05;;;0.80;;
64851;SDS011;56050;55.558;-4.644;2022-11-02T09:32:56;1.65;;;0.40;;
64851;SDS011;56050;55.558;-4.644;2022-11-02T09:35:27;2.45;;;0.30;;
64851;SDS011;56050;55.558;-4.644;2022-11-02T09:37:54;2.33;;;0.52;;
64851;SDS011;56050;55.558;-4.644;2022-11-02T09:40:23;1.98;;;0.40;;
64851;SDS011;56050;55.558;-4.644;2022-11-02T09:45:18;1.23;;;0.35;;
64851;SDS011;56050;55.558;-4.644;2022-11-02T09:47:49;2.95;;;0.40;;
64851;SDS011;56050;55.558;-4.644;2022-11-02T09:50:23;1.40;;;0.20;;
64851;SDS011;56050;55.558;-4.644;2022-11-02T09:52:58;2.15;;;0.70;;
64851;SDS011;56050;55.558;-4.644;2022-11-02T09:55:32;1.65;;;0.30;;
64851;SDS011;56050;55.558;-4.644;2022-11-02T09:58:14;2.95;;;0.30;;
64851;SDS011;56050;55.558;-4.644;2022-11-02T10:00:46;3.85;;;0.52;;
64851;SDS011;56050;55.558;-4.644;2022-11-02T10:06:10;1.35;;;0.70;;
64851;SDS011;56050;55.558;-4.644;2022-11-02T10:11:38;4.45;;;0.80;;
64851;SDS011;56050;55.558;-4.644;2022-11-02T10:16:52;6.30;;;0.52;;
64851;SDS011;56050;55.558;-4.644;2022-11-02T10:19:40;2.58;;;0.43;;
64851;SDS011;56050;55.558;-4.644;2022-11-02T10:22:13;2.00;;;0.32;;
64851;SDS011;56050;55.558;-4.644;2022-11-02T10:24:41;4.32;;;0.63;;
64851;SDS011;56050;55.558;-4.644;2022-11-02T10:27:11;2.97;;;0.77;;
64851;SDS011;56050;55.558;-4.644;2022-11-02T10:32:51;2.90;;;0.70;;
64851;SDS011;56050;55.558;-4.644;2022-11-02T10:48:42;7.32;;;2.03;;
64851;SDS011;56050;55.558;-4.644;2022-11-02T10:51:37;2.67;;;2.22;;
64851;SDS011;56050;55.558;-4.644;2022-11-02T10:54:04;3.30;;;0.40;;
64851;SDS011;56050;55.558;-4.644;2022-11-02T10:56:37;4.25;;;0.30;;
64851;SDS011;56050;55.558;-4.644;2022-11-02T11:01:33;2.07;;;0.70;;
64851;SDS011;56050;55.558;-4.644;2022-11-02T11:04:03;5.45;;;0.57;;
64851;SDS011;56050;55.558;-4.644;2022-11-02T11:06:30;3.25;;;0.40;;
64851;SDS011;56050;55.558;-4.644;2022-11-02T11:11:55;2.30;;;0.60;;
64851;SDS011;56050;55.558;-4.644;2022-11-02T11:14:21;2.83;;;0.43;;
64851;SDS011;56050;55.558;-4.644;2022-11-02T11:16:52;3.63;;;0.70;;
64851;SDS011;56050;55.558;-4.644;2022-11-02T11:21:58;3.40;;;0.52;;
64851;SDS011;56050;55.558;-4.644;2022-11-02T11:24:33;6.88;;;0.80;;
64851;SDS011;56050;55.558;-4.644;2022-11-02T11:27:00;2.72;;;0.60;;
64851;SDS011;56050;55.558;-4.644;2022-11-02T11:29:32;7.97;;;1.13;;
64851;SDS011;56050;55.558;-4.644;2022-11-02T11:32:02;4.18;;;0.77;;
64851;SDS011;56050;55.558;-4.644;2022-11-02T11:34:29;4.28;;;0.60;;
64851;SDS011;56050;55.558;-4.644;2022-11-02T11:37:07;4.35;;;1.13;;
64851;SDS011;56050;55.558;-4.644;2022-11-02T11:39:36;7.20;;;1.20;;
64851;SDS011;56050;55.558;-4.644;2022-11-02T11:42:04;4.88;;;0.73;;
64851;SDS011;56050;55.558;-4.644;2022-11-02T11:45:06;7.50;;;1.05;;
64851;SDS011;56050;55.558;-4.644;2022-11-02T11:47:36;7.68;;;0.90;;
64851;SDS011;56050;55.558;-4.644;2022-11-02T11:50:04;3.17;;;0.60;;
64851;SDS011;56050;55.558;-4.644;2022-11-02T11:52:36;6.78;;;1.15;;
64851;SDS011;56050;55.558;-4.644;2022-11-02T11:58:20;8.02;;;0.70;;
64851;SDS011;56050;55.558;-4.644;2022-11-02T12:03:51;5.03;;;0.70;;
64851;SDS011;56050;55.558;-4.644;2022-11-02T12:06:23;2.58;;;0.50;;
64851;SDS011;56050;55.558;-4.644;2022-11-02T12:09:05;6.45;;;0.88;;
64851;SDS011;56050;55.558;-4.644;2022-11-02T12:31:36;6.60;;;0.93;;
64851;SDS011;56050;55.558;-4.644;2022-11-02T12:42:25;10.77;;;1.65;;
64851;SDS011;56050;55.558;-4.644;2022-11-02T12:53:32;10.07;;;1.02;;
64851;SDS011;56050;55.558;-4.644;2022-11-02T12:56:05;11.90;;;0.85;;
64851;SDS011;56050;55.558;-4.644;2022-11-02T12:58:36;6.78;;;1.55;;
64851;SDS011;56050;55.558;-4.644;2022-11-02T13:06:38;5.32;;;1.25;;
64851;SDS011;56050;55.558;-4.644;2022-11-02T13:14:38;9.43;;;1.05;;
64851;SDS011;56050;55.558;-4.644;2022-11-02T13:17:10;5.43;;;0.73;;
64851;SDS011;56050;55.558;-4.644;2022-11-02T13:22:21;11.20;;;0.68;;
64851;SDS011;56050;55.558;-4.644;2022-11-02T13:24:54;3.22;;;0.40;;
64851;SDS011;56050;55.558;-4.644;2022-11-02T13:27:31;7.05;;;0.57;;
64851;SDS011;56050;55.558;-4.644;2022-11-02T13:30:02;5.50;;;0.30;;
64851;SDS011;56050;55.558;-4.644;2022-11-02T13:32:36;3.53;;;0.45;;
64851;SDS011;56050;55.558;-4.644;2022-11-02T13:35:19;2.22;;;0.70;;
64851;SDS011;56050;55.558;-4.644;2022-11-02T13:37:52;3.85;;;0.82;;
64851;SDS011;56050;55.558;-4.644;2022-11-02T13:40:26;8.30;;;1.00;;
64851;SDS011;56050;55.558;-4.644;2022-11-02T13:48:39;19.30;;;2.13;;
64851;SDS011;56050;55.558;-4.644;2022-11-02T13:54:11;18.67;;;2.72;;
64851;SDS011;56050;55.558;-4.644;2022-11-02T13:56:51;17.83;;;2.38;;
64851;SDS011;56050;55.558;-4.644;2022-11-02T14:01:47;29.63;;;2.97;;
64851;SDS011;56050;55.558;-4.644;2022-11-02T14:04:16;18.85;;;2.75;;
64851;SDS011;56050;55.558;-4.644;2022-11-02T14:06:47;17.08;;;2.85;;
64851;SDS011;56050;55.558;-4.644;2022-11-02T14:09:23;13.57;;;1.45;;
64851;SDS011;56050;55.558;-4.644;2022-11-02T14:12:10;11.45;;;1.83;;
64851;SDS011;56050;55.558;-4.644;2022-11-02T14:14:41;10.85;;;1.35;;
64851;SDS011;56050;55.558;-4.644;2022-11-02T14:17:15;9.88;;;1.27;;
64851;SDS011;56050;55.558;-4.644;2022-11-02T14:22:13;6.97;;;1.17;;
64851;SDS011;56050;55.558;-4.644;2022-11-02T14:32:14;10.02;;;1.02;;
64851;SDS011;56050;55.558;-4.644;2022-11-02T14:40:29;4.32;;;0.90;;
64851;SDS011;56050;55.558;-4.644;2022-11-02T14:49:04;5.72;;;1.33;;
64851;SDS011;56050;55.558;-4.644;2022-11-02T14:51:39;7.32;;;0.98;;
64851;SDS011;56050;55.558;-4.644;2022-11-02T14:54:05;8.38;;;1.23;;
64851;SDS011;56050;55.558;-4.644;2022-11-02T14:59:13;9.20;;;2.25;;
64851;SDS011;56050;55.558;-4.644;2022-11-02T15:02:02;10.38;;;1.90;;
64851;SDS011;56050;55.558;-4.644;2022-11-02T15:04:56;8.27;;;1.13;;
64851;SDS011;56050;55.558;-4.644;2022-11-02T15:13:21;12.77;;;1.85;;
64851;SDS011;56050;55.558;-4.644;2022-11-02T15:15:42;10.85;;;1.40;;
64851;SDS011;56050;55.558;-4.644;2022-11-02T15:26:23;9.23;;;1.40;;
64851;SDS011;56050;55.558;-4.644;2022-11-02T15:28:55;10.73;;;2.60;;
64851;SDS011;56050;55.558;-4.644;2022-11-02T15:31:25;15.20;;;1.70;;
64851;SDS011;56050;55.558;-4.644;2022-11-02T15:33:55;17.77;;;1.77;;
64851;SDS011;56050;55.558;-4.644;2022-11-02T15:36:32;14.45;;;1.95;;
64851;SDS011;56050;55.558;-4.644;2022-11-02T15:39:02;12.43;;;1.30;;
64851;SDS011;56050;55.558;-4.644;2022-11-02T16:01:21;11.02;;;1.67;;
64851;SDS011;56050;55.558;-4.644;2022-11-02T16:03:50;11.25;;;2.55;;
64851;SDS011;56050;55.558;-4.644;2022-11-02T16:06:25;11.73;;;2.17;;
64851;SDS011;56050;55.558;-4.644;2022-11-02T16:08:53;9.75;;;1.48;;
64851;SDS011;56050;55.558;-4.644;2022-11-02T16:11:22;8.15;;;0.98;;
64851;SDS011;56050;55.558;-4.644;2022-11-02T16:13:47;12.60;;;1.38;;
64851;SDS011;56050;55.558;-4.644;2022-11-02T16:16:14;8.43;;;2.53;;
64851;SDS011;56050;55.558;-4.644;2022-11-02T16:18:42;9.35;;;2.25;;
64851;SDS011;56050;55.558;-4.644;2022-11-02T16:21:13;11.98;;;1.30;;
64851;SDS011;56050;55.558;-4.644;2022-11-02T16:23:52;7.93;;;1.27;;
64851;SDS011;56050;55.558;-4.644;2022-11-02T16:26:20;5.18;;;1.02;;
64851;SDS011;56050;55.558;-4.644;2022-11-02T16:28:53;8.52;;;1.30;;
64851;SDS011;56050;55.558;-4.644;2022-11-02T16:31:26;8.40;;;1.00;;
64851;SDS011;56050;55.558;-4.644;2022-11-02T16:33:57;10.98;;;1.67;;
64851;SDS011;56050;55.558;-4.644;2022-11-02T16:36:25;9.70;;;1.63;;
64851;SDS011;56050;55.558;-4.644;2022-11-02T16:38:56;14.98;;;2.33;;
64851;SDS011;56050;55.558;-4.644;2022-11-02T16:41:25;6.80;;;1.70;;
64851;SDS011;56050;55.558;-4.644;2022-11-02T16:43:56;14.23;;;1.38;;
64851;SDS011;56050;55.558;-4.644;2022-11-02T16:46:30;18.45;;;1.83;;
64851;SDS011;56050;55.558;-4.644;2022-11-02T16:51:37;11.85;;;2.45;;
64851;SDS011;56050;55.558;-4.644;2022-11-02T16:54:25;12.48;;;2.38;;
64851;SDS011;56050;55.558;-4.644;2022-11-02T16:56:59;15.98;;;1.83;;
64851;SDS011;56050;55.558;-4.644;2022-11-02T16:59:30;15.50;;;2.05;;
64851;SDS011;56050;55.558;-4.644;2022-11-02T17:01:59;14.48;;;2.03;;
64851;SDS011;56050;55.558;-4.644;2022-11-02T17:04:30;12.63;;;1.48;;
64851;SDS011;56050;55.558;-4.644;2022-11-02T17:07:16;12.48;;;1.13;;
64851;SDS011;56050;55.558;-4.644;2022-11-02T17:09:53;9.00;;;2.83;;
64851;SDS011;56050;55.558;-4.644;2022-11-02T17:12:22;14.32;;;2.28;;
64851;SDS011;56050;55.558;-4.644;2022-11-02T17:14:55;7.75;;;1.98;;
64851;SDS011;56050;55.558;-4.644;2022-11-02T17:19:52;6.22;;;1.35;;
64851;SDS011;56050;55.558;-4.644;2022-11-02T17:24:45;9.70;;;1.02;;
64851;SDS011;56050;55.558;-4.644;2022-11-02T17:27:30;7.78;;;1.63;;
64851;SDS011;56050;55.558;-4.644;2022-11-02T17:29:57;10.15;;;1.73;;
64851;SDS011;56050;55.558;-4.644;2022-11-02T17:32:23;11.85;;;1.30;;
64851;SDS011;56050;55.558;-4.644;2022-11-02T17:34:49;10.82;;;2.17;;
64851;SDS011;56050;55.558;-4.644;2022-11-02T17:37:34;10.82;;;2.10;;
64851;SDS011;56050;55.558;-4.644;2022-11-02T17:40:01;6.85;;;1.02;;
64851;SDS011;56050;55.558;-4.644;2022-11-02T17:42:26;10.00;;;1.88;;
64851;SDS011;56050;55.558;-4.644;2022-11-02T17:45:27;12.48;;;1.58;;
64851;SDS011;56050;55.558;-4.644;2022-11-02T17:47:55;7.22;;;1.70;;
64851;SDS011;56050;55.558;-4.644;2022-11-02T17:50:22;9.43;;;1.48;;
64851;SDS011;56050;55.558;-4.644;2022-11-02T17:52:50;17.25;;;2.30;;
64851;SDS011;56050;55.558;-4.644;2022-11-02T17:55:18;11.10;;;1.77;;
64851;SDS011;56050;55.558;-4.644;2022-11-02T17:57:49;12.93;;;1.80;;
64851;SDS011;56050;55.558;-4.644;2022-11-02T18:00:15;9.43;;;1.48;;
64851;SDS011;56050;55.558;-4.644;2022-11-02T18:02:51;12.25;;;2.33;;
64851;SDS011;56050;55.558;-4.644;2022-11-02T18:07:47;12.68;;;1.88;;
64851;SDS011;56050;55.558;-4.644;2022-11-02T18:10:13;12.15;;;1.80;;
64851;SDS011;56050;55.558;-4.644;2022-11-02T18:12:39;9.32;;;1.83;;
64851;SDS011;56050;55.558;-4.644;2022-11-02T18:15:05;19.65;;;3.20;;
64851;SDS011;56050;55.558;-4.644;2022-11-02T18:17:31;10.93;;;2.05;;
64851;SDS011;56050;55.558;-4.644;2022-11-02T18:19:56;15.13;;;2.28;;